createdAt,value
2018-08-04T00:00:42.573Z,16.00
2018-08-04T00:03:11.262Z,15.83
2018-08-04T00:05:39.912Z,25.03
2018-08-04T00:08:08.589Z,16.63
2018-08-04T00:10:37.839Z,15.33
2018-08-04T00:13:07.150Z,16.43
2018-08-04T00:15:35.793Z,17.20
2018-08-04T00:18:04.424Z,16.70
2018-08-04T00:20:33.146Z,18.03
2018-08-04T00:23:01.845Z,15.45
2018-08-04T00:25:31.177Z,23.90
2018-08-04T00:27:59.802Z,18.77
2018-08-04T00:30:28.447Z,17.37
2018-08-04T00:32:56.989Z,16.20
2018-08-04T00:35:25.591Z,15.90
2018-08-04T00:37:54.274Z,24.30
2018-08-04T00:40:23.757Z,16.77
2018-08-04T00:42:52.434Z,17.27
2018-08-04T00:45:21.102Z,18.87
2018-08-04T00:47:50.234Z,18.37
2018-08-04T00:50:19.669Z,17.52
2018-08-04T00:52:48.293Z,17.53
2018-08-04T00:55:16.928Z,16.63
2018-08-04T00:57:45.564Z,20.20
2018-08-04T01:00:14.372Z,17.00
2018-08-04T01:02:43.037Z,17.02
2018-08-04T01:05:11.855Z,35.13
2018-08-04T01:07:40.564Z,17.40
2018-08-04T01:10:09.269Z,22.33
2018-08-04T01:12:38.042Z,16.37
2018-08-04T01:15:06.801Z,15.93
2018-08-04T01:17:36.082Z,16.23
2018-08-04T01:20:05.609Z,17.20
2018-08-04T01:22:36.073Z,17.43
2018-08-04T01:25:05.674Z,17.80
2018-08-04T01:27:34.513Z,16.37
2018-08-04T01:30:03.948Z,16.10
2018-08-04T01:32:32.737Z,17.00
2018-08-04T01:35:01.489Z,17.37
2018-08-04T01:37:30.407Z,19.47
2018-08-04T01:40:00.203Z,17.70
2018-08-04T01:42:28.825Z,16.77
2018-08-04T01:44:57.457Z,18.90
2018-08-04T01:47:26.126Z,20.08
2018-08-04T01:49:54.848Z,16.95
2018-08-04T01:52:23.668Z,17.87
2018-08-04T01:54:52.389Z,16.53
2018-08-04T01:57:21.020Z,17.57
2018-08-04T01:59:50.179Z,17.07
2018-08-04T02:02:19.063Z,16.77
2018-08-04T02:04:47.791Z,18.67
2018-08-04T02:07:16.443Z,20.20
2018-08-04T02:09:45.180Z,21.60
2018-08-04T02:12:14.018Z,18.77
2018-08-04T02:14:42.972Z,17.43
2018-08-04T02:17:11.558Z,19.77
2018-08-04T02:19:40.224Z,18.10
2018-08-04T02:22:08.947Z,17.30
2018-08-04T02:24:37.710Z,22.90
2018-08-04T02:27:06.353Z,17.77
2018-08-04T02:29:35.068Z,18.47
2018-08-04T02:32:03.818Z,19.07
2018-08-04T02:34:32.653Z,18.30
2018-08-04T02:37:01.287Z,19.10
2018-08-04T02:39:30.108Z,16.97
2018-08-04T02:41:58.849Z,17.07
2018-08-04T02:44:27.634Z,20.13
2018-08-04T02:46:56.271Z,18.40
2018-08-04T02:49:24.943Z,20.27
2018-08-04T02:51:53.633Z,19.00
2018-08-04T02:54:23.189Z,17.73
2018-08-04T02:56:51.789Z,19.80
2018-08-04T02:59:20.444Z,19.05
2018-08-04T03:01:49.108Z,19.60
2018-08-04T03:04:17.879Z,18.60
2018-08-04T03:06:46.523Z,22.07
2018-08-04T03:09:16.076Z,18.77
2018-08-04T03:11:44.729Z,18.70
2018-08-04T03:14:13.285Z,20.43
2018-08-04T03:16:41.980Z,19.47
2018-08-04T03:19:10.598Z,20.10
2018-08-04T03:21:39.732Z,21.30
2018-08-04T03:24:08.311Z,16.67
2018-08-04T03:26:36.871Z,17.90
2018-08-04T03:29:06.204Z,20.03
2018-08-04T03:31:35.652Z,19.60
2018-08-04T03:34:04.280Z,17.37
2018-08-04T03:36:33.094Z,18.20
2018-08-04T03:39:01.789Z,18.10
2018-08-04T03:41:30.355Z,20.03
2018-08-04T03:43:59.005Z,18.95
2018-08-04T03:46:29.248Z,20.70
2018-08-04T03:48:58.029Z,19.97
2018-08-04T03:51:26.917Z,19.05
2018-08-04T03:53:56.168Z,18.00
2018-08-04T03:56:25.862Z,18.90
2018-08-04T03:58:55.173Z,19.70
2018-08-04T04:01:23.784Z,19.30
2018-08-04T04:03:52.458Z,27.27
2018-08-04T04:06:21.064Z,25.47
2018-08-04T04:08:49.859Z,20.23
2018-08-04T04:11:18.495Z,19.73
2018-08-04T04:13:47.269Z,23.05
2018-08-04T04:16:16.035Z,18.70
2018-08-04T04:18:44.840Z,18.30
2018-08-04T04:21:13.442Z,18.10
2018-08-04T04:23:42.214Z,19.17
2018-08-04T04:26:10.934Z,20.13
2018-08-04T04:28:39.624Z,18.87
2018-08-04T04:31:09.069Z,19.73
2018-08-04T04:33:37.729Z,17.67
2018-08-04T04:36:06.379Z,18.60
2018-08-04T04:38:35.004Z,17.87
2018-08-04T04:41:03.649Z,18.07
2018-08-04T04:43:32.239Z,17.07
2018-08-04T04:46:00.813Z,18.33
2018-08-04T04:48:29.633Z,20.13
2018-08-04T04:50:58.975Z,17.87
2018-08-04T04:53:28.272Z,19.33
2018-08-04T04:55:57.246Z,16.67
2018-08-04T04:58:25.905Z,17.37
2018-08-04T05:00:54.672Z,17.37
2018-08-04T05:03:23.276Z,16.30
2018-08-04T05:05:52.068Z,15.73
2018-08-04T05:08:20.636Z,19.03
2018-08-04T05:10:49.326Z,29.00
2018-08-04T05:13:18.520Z,15.58
2018-08-04T05:15:47.131Z,18.07
2018-08-04T05:18:16.055Z,15.33
2018-08-04T05:20:45.276Z,19.20
2018-08-04T05:23:14.744Z,14.57
2018-08-04T05:25:43.484Z,28.30
2018-08-04T05:28:12.256Z,14.23
2018-08-04T05:30:41.064Z,14.90
2018-08-04T05:33:09.761Z,14.13
2018-08-04T05:35:38.354Z,20.80
2018-08-04T05:38:07.140Z,17.17
2018-08-04T05:40:36.491Z,15.40
2018-08-04T05:43:05.144Z,20.77
2018-08-04T05:45:33.892Z,16.57
2018-08-04T05:48:02.732Z,13.27
2018-08-04T05:50:31.395Z,14.60
2018-08-04T05:52:59.986Z,14.53
2018-08-04T05:55:28.867Z,24.53
2018-08-04T05:57:57.566Z,12.90
2018-08-04T06:00:26.276Z,14.63
2018-08-04T06:02:55.694Z,13.10
2018-08-04T06:05:24.871Z,25.20
2018-08-04T06:07:53.662Z,13.80
2018-08-04T06:10:22.236Z,13.57
2018-08-04T06:12:51.521Z,14.47
2018-08-04T06:15:20.132Z,16.63
2018-08-04T06:17:48.890Z,14.37
2018-08-04T06:20:18.396Z,13.77
2018-08-04T06:22:47.068Z,16.23
2018-08-04T06:25:16.598Z,16.87
2018-08-04T06:27:45.405Z,15.17
2018-08-04T06:30:14.089Z,11.87
2018-08-04T06:32:43.359Z,12.93
2018-08-04T06:35:12.429Z,12.53
2018-08-04T06:37:41.301Z,13.40
2018-08-04T06:40:09.986Z,12.50
2018-08-04T06:42:38.747Z,16.82
2018-08-04T06:45:07.435Z,14.97
2018-08-04T06:47:36.233Z,14.90
2018-08-04T06:50:05.037Z,15.43
2018-08-04T06:52:33.776Z,14.63
2018-08-04T06:55:02.400Z,14.90
2018-08-04T06:57:31.862Z,26.73
2018-08-04T07:00:01.020Z,14.23
2018-08-04T07:02:29.712Z,12.70
2018-08-04T07:04:59.934Z,14.53
2018-08-04T07:07:28.560Z,58.83
2018-08-04T07:09:57.366Z,12.47
2018-08-04T07:12:26.804Z,11.20
2018-08-04T07:14:55.534Z,10.37
2018-08-04T07:17:24.390Z,10.97
2018-08-04T07:19:53.731Z,10.47
2018-08-04T07:22:23.055Z,9.87
2018-08-04T07:24:51.671Z,10.53
2018-08-04T07:27:20.355Z,10.80
2018-08-04T07:29:49.657Z,9.87
2018-08-04T07:32:18.435Z,8.37
2018-08-04T07:34:47.012Z,9.47
2018-08-04T07:37:16.352Z,9.50
2018-08-04T07:39:45.121Z,10.03
2018-08-04T07:42:13.737Z,7.95
2018-08-04T07:44:42.547Z,8.63
2018-08-04T07:47:12.177Z,8.03
2018-08-04T07:49:40.815Z,8.38
2018-08-04T07:52:10.704Z,7.08
2018-08-04T07:54:39.346Z,6.90
2018-08-04T07:57:07.984Z,6.55
2018-08-04T07:59:37.490Z,8.75
2018-08-04T08:02:06.700Z,6.17
2018-08-04T08:04:35.355Z,6.22
2018-08-04T08:07:04.885Z,7.87
2018-08-04T08:09:33.474Z,6.10
2018-08-04T08:12:02.368Z,6.97
2018-08-04T08:14:30.991Z,5.83
2018-08-04T08:16:59.816Z,5.75
2018-08-04T08:19:28.645Z,5.83
2018-08-04T08:21:57.315Z,5.92
2018-08-04T08:24:25.957Z,5.93
2018-08-04T08:26:54.786Z,5.25
2018-08-04T08:29:23.421Z,5.10
2018-08-04T08:31:52.232Z,4.80
2018-08-04T08:34:20.926Z,5.47
2018-08-04T08:36:49.682Z,3.80
2018-08-04T08:39:18.377Z,4.42
2018-08-04T08:41:48.047Z,3.35
2018-08-04T08:44:16.838Z,4.15
2018-08-04T08:46:45.724Z,7.35
2018-08-04T08:49:14.541Z,13.38
2018-08-04T08:51:44.521Z,4.15
2018-08-04T08:54:13.420Z,3.62
2018-08-04T08:56:42.127Z,8.48
2018-08-04T08:59:10.889Z,3.25
2018-08-04T09:01:39.599Z,3.20
2018-08-04T09:04:08.536Z,3.10
2018-08-04T09:06:37.881Z,3.65
2018-08-04T09:09:08.631Z,2.77
2018-08-04T09:11:37.584Z,5.25
2018-08-04T09:14:07.042Z,4.12
2018-08-04T09:16:35.772Z,5.72
2018-08-04T09:19:04.585Z,3.50
2018-08-04T09:21:33.227Z,3.75
2018-08-04T09:24:01.920Z,6.30
2018-08-04T09:26:30.673Z,3.60
2018-08-04T09:28:59.484Z,3.02
2018-08-04T09:31:28.204Z,4.45
2018-08-04T09:33:56.932Z,2.17
2018-08-04T09:36:25.618Z,2.30
2018-08-04T09:38:54.431Z,3.52
2018-08-04T09:41:23.236Z,2.15
2018-08-04T09:43:51.976Z,2.25
2018-08-04T09:46:20.662Z,5.80
2018-08-04T09:48:49.326Z,2.65
2018-08-04T09:51:18.784Z,9.95
2018-08-04T09:53:47.486Z,2.20
2018-08-04T09:56:16.926Z,2.80
2018-08-04T09:58:46.313Z,2.46
2018-08-04T10:01:20.293Z,2.55
2018-08-04T10:03:48.944Z,1.40
2018-08-04T10:06:17.823Z,1.37
2018-08-04T10:08:47.568Z,8.85
2018-08-04T10:11:16.321Z,1.80
2018-08-04T10:13:45.767Z,3.20
2018-08-04T10:16:14.628Z,2.12
2018-08-04T10:18:43.527Z,1.57
2018-08-04T10:21:12.472Z,7.87
2018-08-04T10:23:41.211Z,4.20
2018-08-04T10:26:10.344Z,1.75
2018-08-04T10:28:38.892Z,1.32
2018-08-04T10:31:07.710Z,1.27
2018-08-04T10:33:36.556Z,1.07
2018-08-04T10:41:01.483Z,1.40
2018-08-04T10:45:58.582Z,1.55
2018-08-04T10:58:19.710Z,0.90
2018-08-04T11:00:49.139Z,1.17
2018-08-04T11:03:18.085Z,1.07
2018-08-04T11:05:46.846Z,0.80
2018-08-04T11:08:15.584Z,1.07
2018-08-04T11:10:44.293Z,1.12
2018-08-04T11:13:13.057Z,0.60
2018-08-04T11:15:41.779Z,1.70
2018-08-04T11:18:10.576Z,2.43
2018-08-04T11:20:39.251Z,1.45
2018-08-04T11:23:08.013Z,1.40
2018-08-04T11:25:37.225Z,1.25
2018-08-04T11:28:06.512Z,2.87
2018-08-04T11:30:35.278Z,1.05
2018-08-04T11:33:03.989Z,0.85
2018-08-04T11:35:32.638Z,0.80
2018-08-04T11:38:01.425Z,1.17
2018-08-04T11:40:30.125Z,0.80
2018-08-04T11:42:58.918Z,0.90
2018-08-04T11:45:28.262Z,0.85
2018-08-04T11:47:57.051Z,0.80
2018-08-04T11:54:49.081Z,0.70
2018-08-04T11:57:18.006Z,1.32
2018-08-04T11:59:46.649Z,0.72
2018-08-04T12:02:15.344Z,0.60
2018-08-04T12:04:43.990Z,0.80
2018-08-04T12:07:13.333Z,1.57
2018-08-04T12:09:42.127Z,0.70
2018-08-04T12:12:10.804Z,0.60
2018-08-04T12:14:39.451Z,0.70
2018-08-04T12:17:09.051Z,0.57
2018-08-04T12:19:38.402Z,1.13
2018-08-04T12:22:07.473Z,0.82
2018-08-04T12:24:36.762Z,1.00
2018-08-04T12:27:05.513Z,1.12
2018-08-04T12:29:34.138Z,0.85
2018-08-04T12:32:03.043Z,0.75
2018-08-04T12:34:31.668Z,0.78
2018-08-04T12:37:00.276Z,0.78
2018-08-04T12:39:29.035Z,0.78
2018-08-04T12:41:58.483Z,0.80
2018-08-04T12:44:27.738Z,0.72
2018-08-04T12:46:56.739Z,2.22
2018-08-04T12:49:25.389Z,5.55
2018-08-04T12:51:54.280Z,1.10
2018-08-04T12:54:23.099Z,0.77
2018-08-04T12:56:51.679Z,0.82
2018-08-04T12:59:20.719Z,0.80
2018-08-04T13:01:49.316Z,1.15
2018-08-04T13:04:18.210Z,0.70
2018-08-04T13:06:46.840Z,1.22
2018-08-04T13:09:15.527Z,0.80
2018-08-04T13:11:44.132Z,0.98
2018-08-04T13:14:13.372Z,1.20
2018-08-04T13:16:42.166Z,1.32
2018-08-04T13:19:11.360Z,1.40
2018-08-04T13:21:39.997Z,2.37
2018-08-04T13:24:08.861Z,1.45
2018-08-04T13:26:37.471Z,1.32
2018-08-04T13:29:06.258Z,1.50
2018-08-04T13:31:34.910Z,1.75
2018-08-04T13:34:03.743Z,8.13
2018-08-04T13:36:32.385Z,1.62
2018-08-04T13:39:01.324Z,1.50
2018-08-04T13:41:30.537Z,1.73
2018-08-04T13:43:59.222Z,1.67
2018-08-04T13:46:28.902Z,2.90
2018-08-04T13:48:57.609Z,2.92
2018-08-04T13:51:26.966Z,2.90
2018-08-04T13:53:55.649Z,3.00
2018-08-04T13:56:24.983Z,2.90
2018-08-04T13:58:54.425Z,4.42
2018-08-04T14:01:23.836Z,3.50
2018-08-04T14:03:52.738Z,4.78
2018-08-04T14:06:22.188Z,3.60
2018-08-04T14:08:51.214Z,3.90
2018-08-04T14:11:20.134Z,4.20
2018-08-04T14:13:48.778Z,3.98
2018-08-04T14:16:17.454Z,6.03
2018-08-04T14:18:46.322Z,9.93
2018-08-04T14:21:15.599Z,6.60
2018-08-04T14:23:44.268Z,4.05
2018-08-04T14:26:12.969Z,4.37
2018-08-04T14:28:41.777Z,3.87
2018-08-04T14:31:10.426Z,4.95
2018-08-04T14:33:39.741Z,4.63
2018-08-04T14:36:08.570Z,7.58
2018-08-04T14:38:37.283Z,6.78
2018-08-04T14:41:06.223Z,3.87
2018-08-04T14:43:34.930Z,3.90
2018-08-04T14:46:03.872Z,4.35
2018-08-04T14:48:33.211Z,6.75
2018-08-04T14:51:01.854Z,4.22
2018-08-04T14:53:31.007Z,4.05
2018-08-04T14:55:59.637Z,10.30
2018-08-04T14:58:28.303Z,4.20
2018-08-04T15:00:57.159Z,5.20
2018-08-04T15:03:25.850Z,4.93
2018-08-04T15:05:54.745Z,4.10
2018-08-04T15:08:23.419Z,4.37
2018-08-04T15:10:52.133Z,7.70
2018-08-04T15:13:21.409Z,6.67
2018-08-04T15:15:50.276Z,4.50
2018-08-04T15:18:18.889Z,7.43
2018-08-04T15:20:48.139Z,8.40
2018-08-04T15:23:16.923Z,11.20
2018-08-04T15:25:45.568Z,4.97
2018-08-04T15:28:15.127Z,5.47
2018-08-04T15:30:44.014Z,5.03
2018-08-04T15:33:13.394Z,4.63
2018-08-04T15:35:42.103Z,7.73
2018-08-04T15:38:10.825Z,5.13
2018-08-04T15:40:39.463Z,8.93
2018-08-04T15:43:08.814Z,7.27
2018-08-04T15:45:37.453Z,7.95
2018-08-04T15:48:06.293Z,4.80
2018-08-04T15:50:34.880Z,9.07
2018-08-04T15:53:04.240Z,6.53
2018-08-04T15:55:32.890Z,8.07
2018-08-04T15:58:02.423Z,8.40
2018-08-04T16:00:31.785Z,6.43
2018-08-04T16:03:00.528Z,5.17
2018-08-04T16:05:30.000Z,6.73
2018-08-04T16:07:59.324Z,6.77
2018-08-04T16:10:28.064Z,6.07
2018-08-04T16:12:56.738Z,8.13
2018-08-04T16:15:25.962Z,7.57
2018-08-04T16:17:54.677Z,6.73
2018-08-04T16:20:23.469Z,6.00
2018-08-04T16:22:52.254Z,5.83
2018-08-04T16:25:20.918Z,6.60
2018-08-04T16:27:50.344Z,9.40
2018-08-04T16:30:19.319Z,12.47
2018-08-04T16:32:48.026Z,7.50
2018-08-04T16:35:16.709Z,7.13
2018-08-04T16:37:46.134Z,21.50
2018-08-04T16:40:14.863Z,6.90
2018-08-04T16:42:43.538Z,9.67
2018-08-04T16:45:12.998Z,7.83
2018-08-04T16:47:41.684Z,8.13
2018-08-04T16:50:10.277Z,7.37
2018-08-04T16:52:39.060Z,7.50
2018-08-04T16:55:08.464Z,10.03
2018-08-04T16:57:37.030Z,7.10
2018-08-04T17:00:05.799Z,6.77
2018-08-04T17:02:35.004Z,13.80
2018-08-04T17:05:04.621Z,15.90
2018-08-04T17:07:34.000Z,13.27
2018-08-04T17:10:02.650Z,10.70
2018-08-04T17:12:31.353Z,7.70
2018-08-04T17:15:00.655Z,6.50
2018-08-04T17:17:29.575Z,7.17
2018-08-04T17:19:58.398Z,5.90
2018-08-04T17:22:27.113Z,9.50
2018-08-04T17:24:56.629Z,11.87
2018-08-04T17:27:25.682Z,6.80
2018-08-04T17:29:54.985Z,9.60
2018-08-04T17:32:23.715Z,8.73
2018-08-04T17:34:52.508Z,6.80
2018-08-04T17:37:21.189Z,8.77
2018-08-04T17:39:49.789Z,6.50
2018-08-04T17:42:18.608Z,6.70
2018-08-04T17:44:47.249Z,6.10
2018-08-04T17:47:17.058Z,6.40
2018-08-04T17:49:45.708Z,6.37
2018-08-04T17:52:14.314Z,6.87
2018-08-04T17:54:43.155Z,7.90
2018-08-04T17:57:12.817Z,7.15
2018-08-04T17:59:41.575Z,6.23
2018-08-04T18:02:10.290Z,8.48
2018-08-04T18:04:39.017Z,9.07
2018-08-04T18:07:08.356Z,6.80
2018-08-04T18:09:37.075Z,7.00
2018-08-04T18:12:05.746Z,16.60
2018-08-04T18:14:34.500Z,7.53
2018-08-04T18:17:03.215Z,6.90
2018-08-04T18:19:32.488Z,8.20
2018-08-04T18:22:01.270Z,8.83
2018-08-04T18:24:29.935Z,9.23
2018-08-04T18:26:59.197Z,6.83
2018-08-04T18:29:27.931Z,7.77
2018-08-04T18:31:56.586Z,8.70
2018-08-04T18:34:25.436Z,17.53
2018-08-04T18:36:54.039Z,7.10
2018-08-04T18:39:22.729Z,13.97
2018-08-04T18:41:51.416Z,21.63
2018-08-04T18:44:20.743Z,11.43
2018-08-04T18:46:49.405Z,9.73
2018-08-04T18:49:18.248Z,14.80
2018-08-04T18:51:47.043Z,8.90
2018-08-04T18:54:15.703Z,12.50
2018-08-04T18:56:45.036Z,8.00
2018-08-04T18:59:14.614Z,11.60
2018-08-04T19:01:43.308Z,9.40
2018-08-04T19:04:12.845Z,9.90
2018-08-04T19:06:41.939Z,12.70
2018-08-04T19:09:11.645Z,10.63
2018-08-04T19:11:41.276Z,10.45
2018-08-04T19:14:10.773Z,12.83
2018-08-04T19:16:39.577Z,33.40
2018-08-04T19:19:09.216Z,10.10
2018-08-04T19:21:38.096Z,10.10
2018-08-04T19:24:07.572Z,9.63
2018-08-04T19:26:36.406Z,13.83
2018-08-04T19:29:05.802Z,8.87
2018-08-04T19:31:35.060Z,10.37
2018-08-04T19:34:03.801Z,13.73
2018-08-04T19:36:32.721Z,11.80
2018-08-04T19:39:01.401Z,11.75
2018-08-04T19:42:33.470Z,11.90
2018-08-04T19:45:02.278Z,23.57
2018-08-04T19:47:30.977Z,16.30
2018-08-04T19:50:00.081Z,11.30
2018-08-04T19:52:28.925Z,10.97
2018-08-04T19:54:57.940Z,17.40
2018-08-04T19:57:27.410Z,13.70
2018-08-04T19:59:56.565Z,11.75
2018-08-04T20:02:25.676Z,13.72
2018-08-04T20:04:54.395Z,13.10
2018-08-04T20:07:23.140Z,10.80
2018-08-04T20:09:51.860Z,12.20
2018-08-04T20:12:20.740Z,9.93
2018-08-04T20:14:50.460Z,9.60
2018-08-04T20:17:20.250Z,16.50
2018-08-04T20:19:48.975Z,15.93
2018-08-04T20:22:18.411Z,19.70
2018-08-04T20:24:47.596Z,11.97
2018-08-04T20:27:16.531Z,12.43
2018-08-04T20:29:46.281Z,11.27
2018-08-04T20:32:15.150Z,12.35
2018-08-04T20:34:44.044Z,10.30
2018-08-04T20:37:13.330Z,10.83
2018-08-04T20:39:42.593Z,14.03
2018-08-04T20:42:11.771Z,11.03
2018-08-04T20:44:40.749Z,14.80
2018-08-04T20:47:09.614Z,13.53
2018-08-04T20:49:38.462Z,17.00
2018-08-04T20:52:07.526Z,12.97
2018-08-04T20:54:36.668Z,12.87
2018-08-04T20:57:06.135Z,11.80
2018-08-04T20:59:35.285Z,18.20
2018-08-04T21:02:05.597Z,28.50
2018-08-04T21:04:35.682Z,13.13
2018-08-04T21:07:05.502Z,20.83
2018-08-04T21:09:34.271Z,12.60
2018-08-04T21:12:03.125Z,12.17
2018-08-04T21:14:31.766Z,12.35
2018-08-04T21:17:00.976Z,16.03
2018-08-04T21:19:29.760Z,11.93
2018-08-04T21:21:58.418Z,11.67
2018-08-04T21:24:27.579Z,21.27
2018-08-04T21:26:56.746Z,13.27
2018-08-04T21:29:25.590Z,16.07
2018-08-04T21:31:55.123Z,13.10
2018-08-04T21:34:23.828Z,12.67
2018-08-04T21:36:52.710Z,12.40
2018-08-04T21:39:21.612Z,12.60
2018-08-04T21:41:50.223Z,17.23
2018-08-04T21:44:18.977Z,13.53
2018-08-04T21:46:50.610Z,12.05
2018-08-04T21:49:19.754Z,15.67
2018-08-04T21:51:49.628Z,13.53
2018-08-04T21:54:19.913Z,14.40
2018-08-04T21:56:48.175Z,12.43
2018-08-04T21:59:16.761Z,13.80
2018-08-04T22:01:50.712Z,11.60
2018-08-04T22:04:19.930Z,16.30
2018-08-04T22:07:59.159Z,16.33
2018-08-04T22:10:28.013Z,19.48
2018-08-04T22:12:57.018Z,11.70
2018-08-04T22:15:25.942Z,14.85
2018-08-04T22:17:54.565Z,13.50
2018-08-04T22:20:23.886Z,11.97
2018-08-04T22:22:52.932Z,12.43
2018-08-04T22:25:22.961Z,13.77
2018-08-04T22:27:51.868Z,15.23
2018-08-04T22:30:21.450Z,13.20
2018-08-04T22:32:50.579Z,12.30
2018-08-04T22:35:19.792Z,14.13
2018-08-04T22:37:48.487Z,14.57
2018-08-04T22:40:17.946Z,13.73
2018-08-04T22:42:46.624Z,13.30
2018-08-04T22:45:58.862Z,18.45
2018-08-04T22:48:27.604Z,14.53
2018-08-04T22:50:56.264Z,19.00
2018-08-04T22:53:24.862Z,14.50
2018-08-04T22:55:53.631Z,30.20
2018-08-04T22:58:23.071Z,23.50
2018-08-04T23:00:52.675Z,28.17
2018-08-04T23:03:21.242Z,26.43
2018-08-04T23:05:50.164Z,32.63
2018-08-04T23:08:19.417Z,25.97
2018-08-04T23:10:48.057Z,29.77
2018-08-04T23:13:17.166Z,28.10
2018-08-04T23:15:46.362Z,23.40
2018-08-04T23:18:15.021Z,26.00
2018-08-04T23:20:43.820Z,29.73
2018-08-04T23:23:13.669Z,27.10
2018-08-04T23:25:42.299Z,27.97
2018-08-04T23:28:11.292Z,28.50
2018-08-04T23:30:39.886Z,26.20
2018-08-04T23:33:08.516Z,28.17
2018-08-04T23:35:37.252Z,26.73
2018-08-04T23:38:06.716Z,26.80
2018-08-04T23:40:35.300Z,23.80
2018-08-04T23:43:03.931Z,25.80
2018-08-04T23:45:33.465Z,27.60
2018-08-04T23:48:02.114Z,25.17
2018-08-04T23:50:30.737Z,29.23
2018-08-04T23:52:59.394Z,25.73
2018-08-04T23:55:28.090Z,23.55
2018-08-04T23:57:56.690Z,30.73
